LIQN

Rieti Airport

Airport
ICAO code
LIQN
Summary
ICAO Region
EUR
ICAO Territory
Location

Rieti, Lazio

Serving
Rieti
Elevation
1278 ft
Coordinates
42° 25' 33" N , 12° 51' 3" E
KCC
Metar
LIQN 191750Z 21007KT CAVOK 32/13 Q1014

Rieti Airport is an aerodrome located 1.34 nm northwest of Rieti, a city in the Lazio region in Italy. It is also known as G. Ciuffelli Airport.

Climatology

Temperate mediterranean climate (Köppen climate classification Csb)

Airport map

Aerial View

SKYbrary Partners:

Safety knowledge contributed by: